This is the latest recevied weather packets stored in our database for station/object YO6LRV-3. If no packets are shown the sender has not sent any weather packets the latest 10 day(s).
| Time | Temp. | Humidity | Pressure | Rain* | Wind** | Luminosity | Snow |
|---|---|---|---|---|---|---|---|
| 1777577756 | 5.56° C | 64% | 1023.6 hPa | - | - | - | - |
| 1777576856 | 5.56° C | 64% | 1023.5 hPa | - | - | - | - |
| 1777575958 | 5.56° C | 64% | 1023.4 hPa | - | - | - | - |
| 1777575058 | 6.11° C | 64% | 1023.1 hPa | - | - | - | - |
| 1777574158 | 6.11° C | 62% | 1023.1 hPa | - | - | - | - |
| 1777572357 | 6.67° C | 61% | 1023.1 hPa | - | - | - | - |
| 1777570557 | 7.22° C | 61% | 1022.7 hPa | - | - | - | - |
| 1777569657 | 7.22° C | 59% | 1022.5 hPa | - | - | - | - |
| 1777568757 | 7.78° C | 58% | 1022.2 hPa | - | - | - | - |
| 1777566957 | 7.78° C | 56% | 1022.1 hPa | - | - | - | - |
| 1777566056 | 8.33° C | 57% | 1022.1 hPa | - | - | - | - |
| 1777565149 | 8.89° C | 56% | 1022.1 hPa | - | - | - | - |
| 1777564249 | 8.89° C | 57% | 1021.9 hPa | - | - | - | - |
| 1777563349 | 8.89° C | 57% | 1021.9 hPa | - | - | - | - |
| 1777562449 | 8.89° C | 58% | 1022.1 hPa | - | - | - | - |
| 1777560656 | 10° C | 50% | 1021.9 hPa | - | - | - | - |
| 1777557955 | 11.11° C | 48% | 1021.6 hPa | - | - | - | - |
| 1777557055 | 11.11° C | 48% | 1021.6 hPa | - | - | - | - |
| 1777556148 | 11.11° C | 47% | 1021.5 hPa | - | - | - | - |
| 1777555255 | 11.11° C | 47% | 1021.5 hPa | - | - | - | - |
| 1777554350 | 10.56° C | 47% | 1021.7 hPa | - | - | - | - |
| 1777553450 | 10.56° C | 48% | 1021.8 hPa | - | - | - | - |
| 1777552557 | 10.56° C | 49% | 1021.9 hPa | - | - | - | - |
| 1777551657 | 10° C | 49% | 1022 hPa | - | - | - | - |
| 1777550757 | 10° C | 49% | 1022.2 hPa | - | - | - | - |
* Rain since midnight (hover to see other rain measurements)
** Current wind speed in m/s (hover to see current wind gust speed)